British Tenacity — MDTE9 — position and weather

sailwx.info

Track history (hours):
 
Tides and Currents Weather Stations Pressure Air Temp Water Temp Dewpoint Dewpoint Depression Visibility Wind Speed Wind Dir Waves Ship Positions

British Tenacity

Last reported at 2014-Oct-25 00:14 UTC. Time now 2014-Oct-25 02:50 UTC.
Position N 46°05' W 001°15'.

Type: Ship (hazmat cat C). MMSI: 235825000.

Date/timePositionNaut miles runAvg speedWind from/ knotsBaromVisibWave heightAir tempDewpointWater temp
2014-Oct-25 00:14N 46°05' W 001°15'0 0.0
2014-Oct-24 20:26N 46°05' W 001°15'0 0.0
2014-Oct-24 19:32N 46°05' W 001°15'0 0.0
2014-Oct-24 18:17N 46°05' W 001°15'0 0.0
2014-Oct-24 14:14N 46°05' W 001°15'0 0.0
2014-Oct-24 13:32N 46°05' W 001°15'0 0.0
2014-Oct-24 12:32N 46°05' W 001°15'0 0.1
2014-Oct-24 10:32N 46°05' W 001°15'4 0.3
2014-Oct-23 23:19N 46°06' W 001°20'1013.2
2014-Oct-23 22:33N 46°07' W 001°35'1414.2
2014-Oct-23 21:34N 46°12' W 001°54'1414.3
2014-Oct-23 20:33N 46°21' W 002°11'213 9.2
2014-Oct-22 21:19N 49°46' W 003°32'1113.9
2014-Oct-22 20:33N 49°52' W 003°18'3712.0
2014-Oct-22 17:30N 50°03' W 002°24'7514.3
2014-Oct-22 12:15N 49°41' W 000°32'1014.5
2014-Oct-22 11:33N 49°38' W 000°18'3 3.1
2014-Oct-22 10:32N 49°37' W 000°13'0 0.0
2014-Oct-22 09:32N 49°37' W 000°13'0 0.1
2014-Oct-22 08:32N 49°37' W 000°13'0 0.0
2014-Oct-22 07:32N 49°37' W 000°13'0 0.0
2014-Oct-22 06:32N 49°37' W 000°13'0 0.1
2014-Oct-22 05:32N 49°37' W 000°13'0 0.0
2014-Oct-22 04:32N 49°37' W 000°13'0 0.2
2014-Oct-22 03:33N 49°36' W 000°13'1410.2
2014-Oct-22 02:11N 49°50' W 000°11'8010.3
2014-Oct-21 18:27N 50°51' E 001°11'1213.7
2014-Oct-21 17:33N 50°60' E 001°25'1313.1
2014-Oct-21 16:34N 51°09' E 001°39'1313.2
2014-Oct-21 15:33N 51°20' E 001°51'1211.7
2014-Oct-21 14:33N 51°30' E 002°01'1110.9
2014-Oct-21 13:33N 51°38' E 002°13'1110.8
2014-Oct-21 12:33N 51°46' E 002°25'16512.4
2014-Oct-20 23:12N 54°11' E 004°34'913.9
2014-Oct-20 22:32N 54°19' E 004°44'1313.6
2014-Oct-20 21:33N 54°30' E 004°58'9313.0
2014-Oct-20 14:26N 55°43' E 006°37'4011.7
2014-Oct-20 11:00N 56°18' E 007°12'8811.4 270 / 301006.410.8 3.014.014.014.0
2014-Oct-20 03:16N 57°29' E 008°47'4211.4
2014-Oct-19 23:33N 57°47' E 009°59'1211.9
2014-Oct-19 22:33N 57°47' E 010°21'1211.9
2014-Oct-19 21:34N 57°48' E 010°43'1110.8
2014-Oct-19 20:33N 57°42' E 010°60'1313.0
2014-Oct-19 19:34N 57°32' E 011°17'1312.7
2014-Oct-19 18:34N 57°22' E 011°30'1313.1
2014-Oct-19 17:33N 57°09' E 011°38'1313.1
2014-Oct-19 16:33N 56°57' E 011°46'1312.6
2014-Oct-19 15:31N 56°44' E 011°51'1313.0
2014-Oct-19 14:33N 56°33' E 011°41'11312.0
2014-Oct-19 05:10N 54°44' E 010°47'3212.1
2014-Oct-19 02:33N 54°29' E 011°35'1212.3
2014-Oct-19 01:33N 54°26' E 011°56'1310.4
2014-Oct-19 00:15N 54°34' E 012°15'811.8
2014-Oct-18 23:33N 54°40' E 012°25'1312.3
2014-Oct-18 22:29N 54°47' E 012°45'4912.3
2014-Oct-18 18:33N 55°04' E 014°03'1212.6
2014-Oct-18 17:33N 55°10' E 014°23'1312.8
2014-Oct-18 16:34N 55°17' E 014°40'9 8.6
2014-Oct-18 15:33N 55°20' E 014°55'1313.0
2014-Oct-18 14:32N 55°26' E 015°16'24 9.4
2014-Oct-18 12:00N 55°36' E 015°54'5913.1 160 / 131024.710.8 1.012.0 7.913.0
2014-Oct-18 07:29N 55°57' E 017°32'2114.0
2014-Oct-18 06:00N 56°06' E 018°06'   080 / 31024.010.8 10.0 9.012.0
Track history (hours):
 
Tides and Currents Weather Stations Pressure Air Temp Water Temp Dewpoint Dewpoint Depression Visibility Wind Speed Wind Dir Waves Ship Positions

British Tenacity

Last reported at 2014-Oct-25 00:14 UTC. Time now 2014-Oct-25 02:50 UTC.
Position N 46°05' W 001°15'.

Type: Ship (hazmat cat C). MMSI: 235825000.

Date/timePositionNaut miles runAvg speedWind from/ knotsBaromVisibWave heightAir tempDewpointWater temp
2014-Oct-25 00:14N 46°05' W 001°15'0 0.0
2014-Oct-24 20:26N 46°05' W 001°15'0 0.0
2014-Oct-24 19:32N 46°05' W 001°15'0 0.0
2014-Oct-24 18:17N 46°05' W 001°15'0 0.0
2014-Oct-24 14:14N 46°05' W 001°15'0 0.0
2014-Oct-24 13:32N 46°05' W 001°15'0 0.0
2014-Oct-24 12:32N 46°05' W 001°15'0 0.1
2014-Oct-24 10:32N 46°05' W 001°15'4 0.3
2014-Oct-23 23:19N 46°06' W 001°20'1013.2
2014-Oct-23 22:33N 46°07' W 001°35'1414.2
2014-Oct-23 21:34N 46°12' W 001°54'1414.3
2014-Oct-23 20:33N 46°21' W 002°11'213 9.2
2014-Oct-22 21:19N 49°46' W 003°32'1113.9
2014-Oct-22 20:33N 49°52' W 003°18'3712.0
2014-Oct-22 17:30N 50°03' W 002°24'7514.3
2014-Oct-22 12:15N 49°41' W 000°32'1014.5
2014-Oct-22 11:33N 49°38' W 000°18'3 3.1
2014-Oct-22 10:32N 49°37' W 000°13'0 0.0
2014-Oct-22 09:32N 49°37' W 000°13'0 0.1
2014-Oct-22 08:32N 49°37' W 000°13'0 0.0
2014-Oct-22 07:32N 49°37' W 000°13'0 0.0
2014-Oct-22 06:32N 49°37' W 000°13'0 0.1
2014-Oct-22 05:32N 49°37' W 000°13'0 0.0
2014-Oct-22 04:32N 49°37' W 000°13'0 0.2
2014-Oct-22 03:33N 49°36' W 000°13'1410.2
2014-Oct-22 02:11N 49°50' W 000°11'8010.3
2014-Oct-21 18:27N 50°51' E 001°11'1213.7
2014-Oct-21 17:33N 50°60' E 001°25'1313.1
2014-Oct-21 16:34N 51°09' E 001°39'1313.2
2014-Oct-21 15:33N 51°20' E 001°51'1211.7
2014-Oct-21 14:33N 51°30' E 002°01'1110.9
2014-Oct-21 13:33N 51°38' E 002°13'1110.8
2014-Oct-21 12:33N 51°46' E 002°25'16512.4
2014-Oct-20 23:12N 54°11' E 004°34'913.9
2014-Oct-20 22:32N 54°19' E 004°44'1313.6
2014-Oct-20 21:33N 54°30' E 004°58'9313.0
2014-Oct-20 14:26N 55°43' E 006°37'4011.7
2014-Oct-20 11:00N 56°18' E 007°12'8811.4 270 / 301006.410.8 3.014.014.014.0
2014-Oct-20 03:16N 57°29' E 008°47'4211.4
2014-Oct-19 23:33N 57°47' E 009°59'1211.9
2014-Oct-19 22:33N 57°47' E 010°21'1211.9
2014-Oct-19 21:34N 57°48' E 010°43'1110.8
2014-Oct-19 20:33N 57°42' E 010°60'1313.0
2014-Oct-19 19:34N 57°32' E 011°17'1312.7
2014-Oct-19 18:34N 57°22' E 011°30'1313.1
2014-Oct-19 17:33N 57°09' E 011°38'1313.1
2014-Oct-19 16:33N 56°57' E 011°46'1312.6
2014-Oct-19 15:31N 56°44' E 011°51'1313.0
2014-Oct-19 14:33N 56°33' E 011°41'11312.0
2014-Oct-19 05:10N 54°44' E 010°47'3212.1
2014-Oct-19 02:33N 54°29' E 011°35'1212.3
2014-Oct-19 01:33N 54°26' E 011°56'1310.4
2014-Oct-19 00:15N 54°34' E 012°15'811.8
2014-Oct-18 23:33N 54°40' E 012°25'1312.3
2014-Oct-18 22:29N 54°47' E 012°45'4912.3
2014-Oct-18 18:33N 55°04' E 014°03'1212.6
2014-Oct-18 17:33N 55°10' E 014°23'1312.8
2014-Oct-18 16:34N 55°17' E 014°40'9 8.6
2014-Oct-18 15:33N 55°20' E 014°55'1313.0
2014-Oct-18 14:32N 55°26' E 015°16'24 9.4
2014-Oct-18 12:00N 55°36' E 015°54'5913.1 160 / 131024.710.8 1.012.0 7.913.0
2014-Oct-18 07:29N 55°57' E 017°32'2114.0
2014-Oct-18 06:00N 56°06' E 018°06'   080 / 31024.010.8 10.0 9.012.0

Dump ship's entire track history